OPMN weather

Miram Shah Airport
Miram Shah, Federally Administered Tribal Areas, Pakistan

Public forecast

Using degrees Celsius for public forecast. Weather courtesy of forecast.io.

METAR (pilot weather report)

Closest report is Peshawar International Airport, 93.4 nm (173.0 km) NE. Retrieved 2019/08/25 14:30 UTC (0 seconds ago):

OPPS 251430Z 31016KT 4000 TS FEW035CB SCT045 BKN110 31/23 Q1003

TAF (pilot weather forecast)

Forecast is more than 6 hours old.

Closest forecast is Jalalabad Airport, 85.9 nm (159.2 km) NNE. Retrieved 2019/08/25 08:15 UTC (6 hours ago):

TAF OAJL 250800Z 2508/2614 VRB06KT 9999 FEW150 QNH2968INS BECMG 2509/2510 11009KT 9999 SCT150 QNH2963INS BECMG 2515/2516 VRB06KT 9999 FEW150 QNH2962INS BECMG 2610/2611 12009KT 9999 FEW150 QNH2988INS TX38/2511Z TN25/2601Z